sensor_id;sensor_type;location;lat;lon;timestamp;P1;durP1;ratioP1;P2;durP2;ratioP2
41687;SDS011;27371;42.686;23.362;2023-09-12T00:04:34;6.75;;;1.88;;
41687;SDS011;27371;42.686;23.362;2023-09-12T00:06:59;4.75;;;2.17;;
41687;SDS011;27371;42.686;23.362;2023-09-12T00:09:25;4.93;;;2.03;;
41687;SDS011;27371;42.686;23.362;2023-09-12T00:11:50;4.38;;;1.80;;
41687;SDS011;27371;42.686;23.362;2023-09-12T00:14:16;4.78;;;1.92;;
41687;SDS011;27371;42.686;23.362;2023-09-12T00:16:44;4.20;;;1.77;;
41687;SDS011;27371;42.686;23.362;2023-09-12T00:19:10;7.78;;;2.00;;
41687;SDS011;27371;42.686;23.362;2023-09-12T00:21:35;5.55;;;1.70;;
41687;SDS011;27371;42.686;23.362;2023-09-12T00:24:01;3.38;;;1.77;;
41687;SDS011;27371;42.686;23.362;2023-09-12T00:26:26;3.67;;;1.70;;
41687;SDS011;27371;42.686;23.362;2023-09-12T00:28:52;4.88;;;1.73;;
41687;SDS011;27371;42.686;23.362;2023-09-12T00:31:17;6.13;;;2.08;;
41687;SDS011;27371;42.686;23.362;2023-09-12T00:33:43;4.97;;;1.65;;
41687;SDS011;27371;42.686;23.362;2023-09-12T00:36:08;4.07;;;1.80;;
41687;SDS011;27371;42.686;23.362;2023-09-12T00:38:34;4.88;;;1.92;;
41687;SDS011;27371;42.686;23.362;2023-09-12T00:40:59;3.92;;;1.63;;
41687;SDS011;27371;42.686;23.362;2023-09-12T00:43:25;4.85;;;2.20;;
41687;SDS011;27371;42.686;23.362;2023-09-12T00:45:50;5.20;;;1.77;;
41687;SDS011;27371;42.686;23.362;2023-09-12T00:48:16;4.28;;;1.73;;
41687;SDS011;27371;42.686;23.362;2023-09-12T00:50:43;4.60;;;2.10;;
41687;SDS011;27371;42.686;23.362;2023-09-12T00:53:11;4.93;;;1.65;;
41687;SDS011;27371;42.686;23.362;2023-09-12T00:55:38;5.53;;;1.75;;
41687;SDS011;27371;42.686;23.362;2023-09-12T00:58:06;3.90;;;1.70;;
41687;SDS011;27371;42.686;23.362;2023-09-12T01:00:32;4.35;;;1.88;;
41687;SDS011;27371;42.686;23.362;2023-09-12T01:02:58;4.60;;;1.98;;
41687;SDS011;27371;42.686;23.362;2023-09-12T01:05:23;6.88;;;2.55;;
41687;SDS011;27371;42.686;23.362;2023-09-12T01:07:49;3.35;;;1.80;;
41687;SDS011;27371;42.686;23.362;2023-09-12T01:10:15;3.55;;;2.35;;
41687;SDS011;27371;42.686;23.362;2023-09-12T01:12:41;8.07;;;2.83;;
41687;SDS011;27371;42.686;23.362;2023-09-12T01:15:06;6.38;;;2.67;;
41687;SDS011;27371;42.686;23.362;2023-09-12T01:17:38;3.78;;;2.10;;
41687;SDS011;27371;42.686;23.362;2023-09-12T01:20:06;2.97;;;1.92;;
41687;SDS011;27371;42.686;23.362;2023-09-12T01:28:11;5.35;;;2.58;;
41687;SDS011;27371;42.686;23.362;2023-09-12T01:30:39;3.67;;;2.00;;
41687;SDS011;27371;42.686;23.362;2023-09-12T01:33:06;4.15;;;2.15;;
41687;SDS011;27371;42.686;23.362;2023-09-12T01:35:32;6.32;;;1.95;;
41687;SDS011;27371;42.686;23.362;2023-09-12T01:37:57;5.63;;;2.25;;
41687;SDS011;27371;42.686;23.362;2023-09-12T01:43:21;5.47;;;2.30;;
41687;SDS011;27371;42.686;23.362;2023-09-12T01:45:49;4.75;;;2.17;;
41687;SDS011;27371;42.686;23.362;2023-09-12T01:48:19;3.83;;;2.40;;
41687;SDS011;27371;42.686;23.362;2023-09-12T01:50:46;3.35;;;2.00;;
41687;SDS011;27371;42.686;23.362;2023-09-12T01:53:12;5.85;;;2.05;;
41687;SDS011;27371;42.686;23.362;2023-09-12T01:55:39;4.95;;;2.35;;
41687;SDS011;27371;42.686;23.362;2023-09-12T01:58:07;5.38;;;2.40;;
41687;SDS011;27371;42.686;23.362;2023-09-12T02:00:33;7.47;;;2.42;;
41687;SDS011;27371;42.686;23.362;2023-09-12T02:02:59;6.28;;;2.40;;
41687;SDS011;27371;42.686;23.362;2023-09-12T02:05:24;5.90;;;2.25;;
41687;SDS011;27371;42.686;23.362;2023-09-12T02:07:51;6.68;;;2.60;;
41687;SDS011;27371;42.686;23.362;2023-09-12T02:10:16;4.85;;;2.70;;
41687;SDS011;27371;42.686;23.362;2023-09-12T02:12:42;6.35;;;2.90;;
41687;SDS011;27371;42.686;23.362;2023-09-12T02:15:08;5.68;;;2.45;;
41687;SDS011;27371;42.686;23.362;2023-09-12T02:17:34;8.18;;;3.03;;
41687;SDS011;27371;42.686;23.362;2023-09-12T02:19:59;7.35;;;2.70;;
41687;SDS011;27371;42.686;23.362;2023-09-12T02:22:24;6.28;;;2.97;;
41687;SDS011;27371;42.686;23.362;2023-09-12T02:24:50;4.70;;;2.78;;
41687;SDS011;27371;42.686;23.362;2023-09-12T02:27:15;4.82;;;3.08;;
41687;SDS011;27371;42.686;23.362;2023-09-12T02:29:41;11.13;;;4.00;;
41687;SDS011;27371;42.686;23.362;2023-09-12T02:32:07;5.57;;;3.03;;
41687;SDS011;27371;42.686;23.362;2023-09-12T02:34:33;8.55;;;3.45;;
41687;SDS011;27371;42.686;23.362;2023-09-12T02:36:59;4.50;;;2.95;;
41687;SDS011;27371;42.686;23.362;2023-09-12T02:39:24;5.75;;;3.38;;
41687;SDS011;27371;42.686;23.362;2023-09-12T02:41:50;11.80;;;3.53;;
41687;SDS011;27371;42.686;23.362;2023-09-12T02:44:15;10.68;;;3.28;;
41687;SDS011;27371;42.686;23.362;2023-09-12T02:46:41;7.93;;;2.58;;
41687;SDS011;27371;42.686;23.362;2023-09-12T02:49:06;10.40;;;3.72;;
41687;SDS011;27371;42.686;23.362;2023-09-12T02:51:32;6.50;;;3.25;;
41687;SDS011;27371;42.686;23.362;2023-09-12T02:53:57;6.82;;;2.80;;
41687;SDS011;27371;42.686;23.362;2023-09-12T02:56:23;7.63;;;2.92;;
41687;SDS011;27371;42.686;23.362;2023-09-12T02:58:49;7.65;;;3.03;;
41687;SDS011;27371;42.686;23.362;2023-09-12T03:01:18;7.88;;;3.65;;
41687;SDS011;27371;42.686;23.362;2023-09-12T03:03:50;3.70;;;2.47;;
41687;SDS011;27371;42.686;23.362;2023-09-12T03:06:15;7.90;;;2.47;;
41687;SDS011;27371;42.686;23.362;2023-09-12T03:08:43;6.57;;;2.97;;
41687;SDS011;27371;42.686;23.362;2023-09-12T03:11:09;9.68;;;2.58;;
41687;SDS011;27371;42.686;23.362;2023-09-12T03:13:39;4.70;;;2.70;;
41687;SDS011;27371;42.686;23.362;2023-09-12T03:16:09;7.45;;;2.65;;
41687;SDS011;27371;42.686;23.362;2023-09-12T03:18:39;5.60;;;2.72;;
41687;SDS011;27371;42.686;23.362;2023-09-12T03:21:05;6.30;;;2.95;;
41687;SDS011;27371;42.686;23.362;2023-09-12T03:23:31;6.75;;;3.10;;
41687;SDS011;27371;42.686;23.362;2023-09-12T03:26:03;7.63;;;2.80;;
41687;SDS011;27371;42.686;23.362;2023-09-12T03:28:30;10.20;;;3.40;;
41687;SDS011;27371;42.686;23.362;2023-09-12T03:31:03;4.90;;;2.72;;
41687;SDS011;27371;42.686;23.362;2023-09-12T03:33:39;8.25;;;3.42;;
41687;SDS011;27371;42.686;23.362;2023-09-12T03:36:06;8.30;;;3.15;;
41687;SDS011;27371;42.686;23.362;2023-09-12T03:38:32;7.63;;;3.35;;
41687;SDS011;27371;42.686;23.362;2023-09-12T03:40:58;8.75;;;3.53;;
41687;SDS011;27371;42.686;23.362;2023-09-12T03:43:24;8.40;;;3.80;;
41687;SDS011;27371;42.686;23.362;2023-09-12T03:45:50;10.90;;;4.00;;
41687;SDS011;27371;42.686;23.362;2023-09-12T03:48:15;7.55;;;3.40;;
41687;SDS011;27371;42.686;23.362;2023-09-12T03:50:40;9.85;;;3.75;;
41687;SDS011;27371;42.686;23.362;2023-09-12T03:53:06;11.18;;;3.95;;
41687;SDS011;27371;42.686;23.362;2023-09-12T03:55:33;7.82;;;3.67;;
41687;SDS011;27371;42.686;23.362;2023-09-12T03:57:58;8.20;;;4.10;;
41687;SDS011;27371;42.686;23.362;2023-09-12T04:00:24;6.68;;;2.90;;
41687;SDS011;27371;42.686;23.362;2023-09-12T04:02:49;14.80;;;3.90;;
41687;SDS011;27371;42.686;23.362;2023-09-12T04:05:15;8.75;;;3.55;;
41687;SDS011;27371;42.686;23.362;2023-09-12T04:07:41;7.70;;;3.67;;
41687;SDS011;27371;42.686;23.362;2023-09-12T04:10:06;11.43;;;3.40;;
41687;SDS011;27371;42.686;23.362;2023-09-12T04:12:32;11.55;;;3.47;;
41687;SDS011;27371;42.686;23.362;2023-09-12T04:14:57;7.97;;;2.90;;
41687;SDS011;27371;42.686;23.362;2023-09-12T04:17:23;10.98;;;3.63;;
41687;SDS011;27371;42.686;23.362;2023-09-12T04:19:51;10.57;;;3.15;;
41687;SDS011;27371;42.686;23.362;2023-09-12T04:22:17;5.97;;;3.15;;
41687;SDS011;27371;42.686;23.362;2023-09-12T04:24:42;10.75;;;3.30;;
41687;SDS011;27371;42.686;23.362;2023-09-12T04:27:07;7.53;;;2.55;;
41687;SDS011;27371;42.686;23.362;2023-09-12T04:29:33;11.27;;;3.75;;
41687;SDS011;27371;42.686;23.362;2023-09-12T04:32:00;9.68;;;3.47;;
41687;SDS011;27371;42.686;23.362;2023-09-12T04:34:27;7.15;;;3.10;;
41687;SDS011;27371;42.686;23.362;2023-09-12T04:36:53;11.07;;;3.40;;
41687;SDS011;27371;42.686;23.362;2023-09-12T04:39:19;11.13;;;3.30;;
41687;SDS011;27371;42.686;23.362;2023-09-12T04:41:44;9.48;;;3.28;;
41687;SDS011;27371;42.686;23.362;2023-09-12T04:44:11;7.88;;;3.63;;
41687;SDS011;27371;42.686;23.362;2023-09-12T04:46:36;8.32;;;3.22;;
41687;SDS011;27371;42.686;23.362;2023-09-12T04:49:02;8.27;;;3.55;;
41687;SDS011;27371;42.686;23.362;2023-09-12T04:51:28;5.47;;;2.97;;
41687;SDS011;27371;42.686;23.362;2023-09-12T04:53:56;11.93;;;3.65;;
41687;SDS011;27371;42.686;23.362;2023-09-12T04:56:22;7.10;;;2.90;;
41687;SDS011;27371;42.686;23.362;2023-09-12T04:58:49;8.73;;;3.28;;
41687;SDS011;27371;42.686;23.362;2023-09-12T05:01:15;9.20;;;3.55;;
41687;SDS011;27371;42.686;23.362;2023-09-12T05:03:41;10.80;;;3.90;;
41687;SDS011;27371;42.686;23.362;2023-09-12T05:06:06;8.50;;;3.45;;
41687;SDS011;27371;42.686;23.362;2023-09-12T05:08:32;9.63;;;4.25;;
41687;SDS011;27371;42.686;23.362;2023-09-12T05:10:58;14.65;;;4.20;;
41687;SDS011;27371;42.686;23.362;2023-09-12T05:13:23;12.27;;;4.47;;
41687;SDS011;27371;42.686;23.362;2023-09-12T05:15:49;6.75;;;3.50;;
41687;SDS011;27371;42.686;23.362;2023-09-12T05:18:14;7.50;;;3.72;;
41687;SDS011;27371;42.686;23.362;2023-09-12T05:20:39;8.32;;;3.85;;
41687;SDS011;27371;42.686;23.362;2023-09-12T05:23:05;13.23;;;4.25;;
41687;SDS011;27371;42.686;23.362;2023-09-12T05:25:30;11.07;;;3.83;;
41687;SDS011;27371;42.686;23.362;2023-09-12T05:27:56;15.70;;;4.45;;
41687;SDS011;27371;42.686;23.362;2023-09-12T05:30:21;8.95;;;3.95;;
41687;SDS011;27371;42.686;23.362;2023-09-12T05:32:47;12.27;;;4.00;;
41687;SDS011;27371;42.686;23.362;2023-09-12T05:35:13;16.38;;;4.20;;
41687;SDS011;27371;42.686;23.362;2023-09-12T05:37:38;11.38;;;4.25;;
41687;SDS011;27371;42.686;23.362;2023-09-12T05:40:04;10.70;;;3.72;;
41687;SDS011;27371;42.686;23.362;2023-09-12T05:42:30;5.15;;;3.13;;
41687;SDS011;27371;42.686;23.362;2023-09-12T05:44:56;9.70;;;3.38;;
41687;SDS011;27371;42.686;23.362;2023-09-12T05:47:22;13.25;;;3.47;;
41687;SDS011;27371;42.686;23.362;2023-09-12T05:49:47;13.38;;;4.00;;
41687;SDS011;27371;42.686;23.362;2023-09-12T05:52:13;6.88;;;3.15;;
41687;SDS011;27371;42.686;23.362;2023-09-12T05:54:39;7.97;;;3.10;;
41687;SDS011;27371;42.686;23.362;2023-09-12T05:57:06;4.93;;;2.88;;
41687;SDS011;27371;42.686;23.362;2023-09-12T05:59:32;11.38;;;3.60;;
41687;SDS011;27371;42.686;23.362;2023-09-12T06:02:01;9.63;;;3.75;;
41687;SDS011;27371;42.686;23.362;2023-09-12T06:04:27;6.55;;;3.25;;
41687;SDS011;27371;42.686;23.362;2023-09-12T06:06:52;12.05;;;3.22;;
41687;SDS011;27371;42.686;23.362;2023-09-12T06:09:18;7.50;;;3.20;;
41687;SDS011;27371;42.686;23.362;2023-09-12T06:11:43;5.95;;;2.90;;
41687;SDS011;27371;42.686;23.362;2023-09-12T06:14:09;5.75;;;3.13;;
41687;SDS011;27371;42.686;23.362;2023-09-12T06:16:34;9.65;;;3.10;;
41687;SDS011;27371;42.686;23.362;2023-09-12T06:19:00;5.25;;;2.88;;
41687;SDS011;27371;42.686;23.362;2023-09-12T06:21:25;9.52;;;3.50;;
41687;SDS011;27371;42.686;23.362;2023-09-12T06:23:55;8.60;;;3.15;;
41687;SDS011;27371;42.686;23.362;2023-09-12T06:26:33;6.20;;;3.17;;
41687;SDS011;27371;42.686;23.362;2023-09-12T06:28:59;6.63;;;3.15;;
41687;SDS011;27371;42.686;23.362;2023-09-12T06:31:24;7.93;;;2.63;;
41687;SDS011;27371;42.686;23.362;2023-09-12T06:33:50;4.78;;;2.47;;
41687;SDS011;27371;42.686;23.362;2023-09-12T06:36:15;10.00;;;2.50;;
41687;SDS011;27371;42.686;23.362;2023-09-12T06:38:41;6.32;;;2.60;;
41687;SDS011;27371;42.686;23.362;2023-09-12T06:41:06;4.63;;;2.35;;
41687;SDS011;27371;42.686;23.362;2023-09-12T06:43:31;7.03;;;2.63;;
41687;SDS011;27371;42.686;23.362;2023-09-12T06:45:57;4.93;;;2.95;;
41687;SDS011;27371;42.686;23.362;2023-09-12T06:48:22;6.57;;;2.75;;
41687;SDS011;27371;42.686;23.362;2023-09-12T06:50:48;6.38;;;3.15;;
41687;SDS011;27371;42.686;23.362;2023-09-12T06:53:18;8.88;;;3.65;;
41687;SDS011;27371;42.686;23.362;2023-09-12T06:55:43;6.45;;;2.95;;
41687;SDS011;27371;42.686;23.362;2023-09-12T06:58:09;12.73;;;5.68;;
41687;SDS011;27371;42.686;23.362;2023-09-12T07:00:34;9.60;;;3.80;;
41687;SDS011;27371;42.686;23.362;2023-09-12T07:03:00;10.40;;;2.97;;
41687;SDS011;27371;42.686;23.362;2023-09-12T07:05:25;8.98;;;3.47;;
41687;SDS011;27371;42.686;23.362;2023-09-12T07:07:51;14.77;;;3.67;;
41687;SDS011;27371;42.686;23.362;2023-09-12T07:10:17;5.68;;;2.72;;
41687;SDS011;27371;42.686;23.362;2023-09-12T07:12:43;8.95;;;3.33;;
41687;SDS011;27371;42.686;23.362;2023-09-12T07:15:08;8.65;;;3.30;;
41687;SDS011;27371;42.686;23.362;2023-09-12T07:17:34;7.45;;;3.22;;
41687;SDS011;27371;42.686;23.362;2023-09-12T07:20:00;12.75;;;3.72;;
41687;SDS011;27371;42.686;23.362;2023-09-12T07:22:25;10.93;;;3.30;;
41687;SDS011;27371;42.686;23.362;2023-09-12T07:24:51;6.93;;;2.67;;
41687;SDS011;27371;42.686;23.362;2023-09-12T07:27:16;6.53;;;2.38;;
41687;SDS011;27371;42.686;23.362;2023-09-12T07:29:42;6.35;;;2.60;;
41687;SDS011;27371;42.686;23.362;2023-09-12T07:32:07;11.68;;;2.30;;
41687;SDS011;27371;42.686;23.362;2023-09-12T07:34:33;8.30;;;2.42;;
41687;SDS011;27371;42.686;23.362;2023-09-12T07:36:58;5.85;;;2.17;;
41687;SDS011;27371;42.686;23.362;2023-09-12T07:39:23;5.05;;;2.35;;
41687;SDS011;27371;42.686;23.362;2023-09-12T07:41:49;6.43;;;2.53;;
41687;SDS011;27371;42.686;23.362;2023-09-12T07:44:15;7.38;;;2.15;;
41687;SDS011;27371;42.686;23.362;2023-09-12T07:46:41;5.80;;;2.15;;
41687;SDS011;27371;42.686;23.362;2023-09-12T07:49:08;12.55;;;2.33;;
41687;SDS011;27371;42.686;23.362;2023-09-12T07:51:34;3.67;;;1.63;;
41687;SDS011;27371;42.686;23.362;2023-09-12T07:54:00;6.90;;;1.73;;
41687;SDS011;27371;42.686;23.362;2023-09-12T07:56:26;7.07;;;2.05;;
41687;SDS011;27371;42.686;23.362;2023-09-12T07:58:51;10.77;;;2.20;;
41687;SDS011;27371;42.686;23.362;2023-09-12T08:01:17;7.70;;;1.42;;
41687;SDS011;27371;42.686;23.362;2023-09-12T08:03:42;3.25;;;1.40;;
41687;SDS011;27371;42.686;23.362;2023-09-12T08:06:08;4.88;;;1.65;;
41687;SDS011;27371;42.686;23.362;2023-09-12T08:08:34;1.95;;;1.17;;
41687;SDS011;27371;42.686;23.362;2023-09-12T08:10:59;3.05;;;1.42;;
41687;SDS011;27371;42.686;23.362;2023-09-12T08:13:28;2.97;;;1.58;;
41687;SDS011;27371;42.686;23.362;2023-09-12T08:15:55;3.00;;;1.40;;
41687;SDS011;27371;42.686;23.362;2023-09-12T08:18:21;8.25;;;1.60;;
41687;SDS011;27371;42.686;23.362;2023-09-12T08:20:51;5.32;;;1.58;;
41687;SDS011;27371;42.686;23.362;2023-09-12T08:23:16;6.00;;;1.52;;
41687;SDS011;27371;42.686;23.362;2023-09-12T08:25:42;4.70;;;1.88;;
41687;SDS011;27371;42.686;23.362;2023-09-12T08:28:07;4.97;;;1.90;;
41687;SDS011;27371;42.686;23.362;2023-09-12T08:30:32;4.78;;;2.00;;
41687;SDS011;27371;42.686;23.362;2023-09-12T08:32:58;6.13;;;2.35;;
41687;SDS011;27371;42.686;23.362;2023-09-12T08:35:23;5.88;;;1.90;;
41687;SDS011;27371;42.686;23.362;2023-09-12T08:37:51;6.60;;;1.80;;
41687;SDS011;27371;42.686;23.362;2023-09-12T08:40:16;7.88;;;1.70;;
41687;SDS011;27371;42.686;23.362;2023-09-12T08:42:43;3.60;;;1.33;;
41687;SDS011;27371;42.686;23.362;2023-09-12T08:45:13;5.80;;;3.10;;
41687;SDS011;27371;42.686;23.362;2023-09-12T08:47:49;6.32;;;2.60;;
41687;SDS011;27371;42.686;23.362;2023-09-12T08:50:16;7.55;;;1.75;;
41687;SDS011;27371;42.686;23.362;2023-09-12T08:52:44;4.82;;;1.83;;
41687;SDS011;27371;42.686;23.362;2023-09-12T08:55:10;7.43;;;1.90;;
41687;SDS011;27371;42.686;23.362;2023-09-12T08:57:40;5.68;;;2.10;;
41687;SDS011;27371;42.686;23.362;2023-09-12T09:00:09;5.80;;;2.80;;
41687;SDS011;27371;42.686;23.362;2023-09-12T09:02:42;9.27;;;4.25;;
41687;SDS011;27371;42.686;23.362;2023-09-12T09:05:09;5.47;;;1.60;;
41687;SDS011;27371;42.686;23.362;2023-09-12T09:07:39;4.88;;;2.88;;
41687;SDS011;27371;42.686;23.362;2023-09-12T09:10:06;5.93;;;2.78;;
41687;SDS011;27371;42.686;23.362;2023-09-12T09:12:37;10.18;;;2.47;;
41687;SDS011;27371;42.686;23.362;2023-09-12T09:15:29;5.28;;;2.03;;
41687;SDS011;27371;42.686;23.362;2023-09-12T09:17:56;10.63;;;2.00;;
41687;SDS011;27371;42.686;23.362;2023-09-12T09:20:26;7.30;;;2.20;;
41687;SDS011;27371;42.686;23.362;2023-09-12T09:23:11;8.20;;;3.90;;
41687;SDS011;27371;42.686;23.362;2023-09-12T09:25:39;4.57;;;1.50;;
41687;SDS011;27371;42.686;23.362;2023-09-12T09:28:19;4.13;;;1.83;;
41687;SDS011;27371;42.686;23.362;2023-09-12T09:30:46;5.30;;;1.80;;
41687;SDS011;27371;42.686;23.362;2023-09-12T09:33:13;13.23;;;6.47;;
41687;SDS011;27371;42.686;23.362;2023-09-12T09:35:42;6.78;;;1.98;;
41687;SDS011;27371;42.686;23.362;2023-09-12T09:38:10;5.57;;;1.60;;
41687;SDS011;27371;42.686;23.362;2023-09-12T09:40:41;5.03;;;1.60;;
41687;SDS011;27371;42.686;23.362;2023-09-12T09:43:07;5.15;;;1.77;;
41687;SDS011;27371;42.686;23.362;2023-09-12T09:45:41;7.90;;;1.98;;
41687;SDS011;27371;42.686;23.362;2023-09-12T09:48:08;6.35;;;1.38;;
41687;SDS011;27371;42.686;23.362;2023-09-12T09:50:34;3.35;;;1.48;;
41687;SDS011;27371;42.686;23.362;2023-09-12T09:53:03;3.20;;;1.40;;
41687;SDS011;27371;42.686;23.362;2023-09-12T09:55:30;8.32;;;2.10;;
41687;SDS011;27371;42.686;23.362;2023-09-12T09:57:57;5.18;;;1.58;;
41687;SDS011;27371;42.686;23.362;2023-09-12T10:00:22;7.78;;;1.83;;
41687;SDS011;27371;42.686;23.362;2023-09-12T10:02:49;2.03;;;1.50;;
41687;SDS011;27371;42.686;23.362;2023-09-12T10:05:16;4.18;;;1.55;;
41687;SDS011;27371;42.686;23.362;2023-09-12T10:07:42;9.85;;;2.38;;
41687;SDS011;27371;42.686;23.362;2023-09-12T10:10:12;9.23;;;2.85;;
41687;SDS011;27371;42.686;23.362;2023-09-12T10:12:43;4.38;;;1.73;;
41687;SDS011;27371;42.686;23.362;2023-09-12T10:15:30;6.45;;;1.98;;
41687;SDS011;27371;42.686;23.362;2023-09-12T10:17:57;4.30;;;1.48;;
41687;SDS011;27371;42.686;23.362;2023-09-12T10:20:50;5.25;;;1.73;;
41687;SDS011;27371;42.686;23.362;2023-09-12T10:23:27;7.43;;;1.60;;
41687;SDS011;27371;42.686;23.362;2023-09-12T10:26:02;3.17;;;1.58;;
41687;SDS011;27371;42.686;23.362;2023-09-12T10:28:28;5.32;;;1.75;;
41687;SDS011;27371;42.686;23.362;2023-09-12T10:30:54;3.35;;;1.48;;
41687;SDS011;27371;42.686;23.362;2023-09-12T10:33:22;5.22;;;1.50;;
41687;SDS011;27371;42.686;23.362;2023-09-12T10:35:48;5.88;;;1.80;;
41687;SDS011;27371;42.686;23.362;2023-09-12T10:38:16;4.03;;;2.17;;
41687;SDS011;27371;42.686;23.362;2023-09-12T10:40:43;4.63;;;1.83;;
41687;SDS011;27371;42.686;23.362;2023-09-12T10:43:13;6.53;;;1.83;;
41687;SDS011;27371;42.686;23.362;2023-09-12T10:45:39;11.35;;;2.40;;
41687;SDS011;27371;42.686;23.362;2023-09-12T10:48:06;7.25;;;2.03;;
41687;SDS011;27371;42.686;23.362;2023-09-12T10:50:31;7.20;;;1.92;;
41687;SDS011;27371;42.686;23.362;2023-09-12T10:53:08;4.55;;;1.75;;
41687;SDS011;27371;42.686;23.362;2023-09-12T10:55:37;7.18;;;2.20;;
41687;SDS011;27371;42.686;23.362;2023-09-12T10:58:03;7.47;;;1.92;;
41687;SDS011;27371;42.686;23.362;2023-09-12T11:00:31;8.65;;;1.50;;
41687;SDS011;27371;42.686;23.362;2023-09-12T11:02:58;5.05;;;1.52;;
41687;SDS011;27371;42.686;23.362;2023-09-12T11:08:00;4.75;;;1.50;;
41687;SDS011;27371;42.686;23.362;2023-09-12T11:10:29;5.70;;;2.00;;
41687;SDS011;27371;42.686;23.362;2023-09-12T11:12:56;5.85;;;1.70;;
41687;SDS011;27371;42.686;23.362;2023-09-12T11:15:22;5.85;;;1.83;;
41687;SDS011;27371;42.686;23.362;2023-09-12T11:18:11;4.85;;;1.80;;
41687;SDS011;27371;42.686;23.362;2023-09-12T11:20:59;7.15;;;2.00;;
41687;SDS011;27371;42.686;23.362;2023-09-12T11:23:28;6.13;;;1.77;;
41687;SDS011;27371;42.686;23.362;2023-09-12T11:26:06;4.32;;;1.95;;
41687;SDS011;27371;42.686;23.362;2023-09-12T11:28:34;8.23;;;1.73;;
41687;SDS011;27371;42.686;23.362;2023-09-12T11:31:00;8.43;;;1.85;;
41687;SDS011;27371;42.686;23.362;2023-09-12T11:33:26;5.57;;;1.85;;
41687;SDS011;27371;42.686;23.362;2023-09-12T11:35:53;5.15;;;1.98;;
41687;SDS011;27371;42.686;23.362;2023-09-12T11:38:30;5.97;;;2.10;;
41687;SDS011;27371;42.686;23.362;2023-09-12T11:40:57;4.72;;;2.10;;
41687;SDS011;27371;42.686;23.362;2023-09-12T11:43:24;6.63;;;1.85;;
41687;SDS011;27371;42.686;23.362;2023-09-12T11:45:51;3.75;;;1.88;;
41687;SDS011;27371;42.686;23.362;2023-09-12T11:48:17;6.43;;;1.98;;
41687;SDS011;27371;42.686;23.362;2023-09-12T11:50:48;5.88;;;1.70;;
41687;SDS011;27371;42.686;23.362;2023-09-12T11:53:23;3.95;;;1.92;;
41687;SDS011;27371;42.686;23.362;2023-09-12T11:55:51;7.70;;;2.70;;
41687;SDS011;27371;42.686;23.362;2023-09-12T11:58:19;8.40;;;2.20;;
41687;SDS011;27371;42.686;23.362;2023-09-12T12:00:45;6.13;;;1.88;;
41687;SDS011;27371;42.686;23.362;2023-09-12T12:03:14;4.95;;;2.00;;
41687;SDS011;27371;42.686;23.362;2023-09-12T12:05:40;3.60;;;1.73;;
41687;SDS011;27371;42.686;23.362;2023-09-12T12:08:07;10.45;;;2.00;;
41687;SDS011;27371;42.686;23.362;2023-09-12T12:10:33;6.00;;;2.20;;
41687;SDS011;27371;42.686;23.362;2023-09-12T12:12:59;3.95;;;1.58;;
41687;SDS011;27371;42.686;23.362;2023-09-12T12:15:27;5.82;;;1.92;;
41687;SDS011;27371;42.686;23.362;2023-09-12T12:17:56;5.35;;;2.38;;
41687;SDS011;27371;42.686;23.362;2023-09-12T12:20:22;5.88;;;2.38;;
41687;SDS011;27371;42.686;23.362;2023-09-12T12:22:48;7.30;;;1.70;;
41687;SDS011;27371;42.686;23.362;2023-09-12T12:25:16;7.63;;;1.95;;
41687;SDS011;27371;42.686;23.362;2023-09-12T12:27:44;6.30;;;1.70;;
41687;SDS011;27371;42.686;23.362;2023-09-12T12:30:11;9.35;;;3.28;;
41687;SDS011;27371;42.686;23.362;2023-09-12T12:32:41;13.80;;;6.43;;
41687;SDS011;27371;42.686;23.362;2023-09-12T12:35:07;10.70;;;2.22;;
41687;SDS011;27371;42.686;23.362;2023-09-12T12:37:33;4.35;;;2.22;;
41687;SDS011;27371;42.686;23.362;2023-09-12T12:40:00;7.97;;;2.40;;
41687;SDS011;27371;42.686;23.362;2023-09-12T12:42:37;13.27;;;2.45;;
41687;SDS011;27371;42.686;23.362;2023-09-12T12:45:13;6.20;;;2.13;;
41687;SDS011;27371;42.686;23.362;2023-09-12T12:47:40;6.40;;;2.13;;
41687;SDS011;27371;42.686;23.362;2023-09-12T12:50:13;3.40;;;2.20;;
41687;SDS011;27371;42.686;23.362;2023-09-12T12:52:40;5.20;;;2.10;;
41687;SDS011;27371;42.686;23.362;2023-09-12T12:55:10;4.85;;;2.20;;
41687;SDS011;27371;42.686;23.362;2023-09-12T12:57:40;7.43;;;2.20;;
41687;SDS011;27371;42.686;23.362;2023-09-12T13:00:13;8.40;;;2.08;;
41687;SDS011;27371;42.686;23.362;2023-09-12T13:02:41;7.10;;;2.10;;
41687;SDS011;27371;42.686;23.362;2023-09-12T13:05:28;8.50;;;2.30;;
41687;SDS011;27371;42.686;23.362;2023-09-12T13:07:54;4.53;;;1.83;;
41687;SDS011;27371;42.686;23.362;2023-09-12T13:10:22;8.48;;;2.22;;
41687;SDS011;27371;42.686;23.362;2023-09-12T13:12:48;9.20;;;2.97;;
41687;SDS011;27371;42.686;23.362;2023-09-12T13:15:15;8.15;;;2.47;;
41687;SDS011;27371;42.686;23.362;2023-09-12T13:17:41;7.93;;;2.50;;
41687;SDS011;27371;42.686;23.362;2023-09-12T13:20:08;5.55;;;1.88;;
41687;SDS011;27371;42.686;23.362;2023-09-12T13:22:34;5.43;;;2.20;;
41687;SDS011;27371;42.686;23.362;2023-09-12T13:25:00;7.80;;;2.42;;
41687;SDS011;27371;42.686;23.362;2023-09-12T13:27:25;7.13;;;2.45;;
41687;SDS011;27371;42.686;23.362;2023-09-12T13:29:51;10.98;;;2.50;;
41687;SDS011;27371;42.686;23.362;2023-09-12T13:32:16;6.70;;;2.08;;
41687;SDS011;27371;42.686;23.362;2023-09-12T13:34:43;8.57;;;2.42;;
41687;SDS011;27371;42.686;23.362;2023-09-12T13:37:09;7.50;;;2.50;;
41687;SDS011;27371;42.686;23.362;2023-09-12T13:39:35;12.43;;;1.98;;
41687;SDS011;27371;42.686;23.362;2023-09-12T13:42:00;12.88;;;2.17;;
41687;SDS011;27371;42.686;23.362;2023-09-12T13:44:28;4.63;;;2.03;;
41687;SDS011;27371;42.686;23.362;2023-09-12T13:46:53;4.95;;;1.90;;
41687;SDS011;27371;42.686;23.362;2023-09-12T13:49:19;5.60;;;2.10;;
41687;SDS011;27371;42.686;23.362;2023-09-12T13:51:44;8.38;;;2.30;;
41687;SDS011;27371;42.686;23.362;2023-09-12T13:54:10;9.35;;;2.00;;
41687;SDS011;27371;42.686;23.362;2023-09-12T13:56:40;6.70;;;2.33;;
41687;SDS011;27371;42.686;23.362;2023-09-12T13:59:06;8.25;;;2.20;;
41687;SDS011;27371;42.686;23.362;2023-09-12T14:01:32;5.75;;;2.17;;
41687;SDS011;27371;42.686;23.362;2023-09-12T14:03:57;8.48;;;2.30;;
41687;SDS011;27371;42.686;23.362;2023-09-12T14:06:23;8.57;;;2.15;;
41687;SDS011;27371;42.686;23.362;2023-09-12T14:08:48;7.80;;;2.10;;
41687;SDS011;27371;42.686;23.362;2023-09-12T14:11:14;10.18;;;2.65;;
41687;SDS011;27371;42.686;23.362;2023-09-12T14:13:41;11.20;;;2.60;;
41687;SDS011;27371;42.686;23.362;2023-09-12T14:16:07;5.18;;;1.90;;
41687;SDS011;27371;42.686;23.362;2023-09-12T14:18:32;9.32;;;2.65;;
41687;SDS011;27371;42.686;23.362;2023-09-12T14:20:57;6.35;;;2.10;;
41687;SDS011;27371;42.686;23.362;2023-09-12T14:23:23;10.80;;;2.10;;
41687;SDS011;27371;42.686;23.362;2023-09-12T14:25:48;8.00;;;2.40;;
41687;SDS011;27371;42.686;23.362;2023-09-12T14:28:15;8.75;;;2.90;;
41687;SDS011;27371;42.686;23.362;2023-09-12T14:30:40;9.77;;;2.40;;
41687;SDS011;27371;42.686;23.362;2023-09-12T14:33:10;7.88;;;2.35;;
41687;SDS011;27371;42.686;23.362;2023-09-12T14:35:36;9.80;;;2.03;;
41687;SDS011;27371;42.686;23.362;2023-09-12T14:38:02;8.05;;;2.20;;
41687;SDS011;27371;42.686;23.362;2023-09-12T14:40:29;6.45;;;2.33;;
41687;SDS011;27371;42.686;23.362;2023-09-12T14:42:54;5.78;;;2.25;;
41687;SDS011;27371;42.686;23.362;2023-09-12T14:45:20;4.65;;;2.63;;
41687;SDS011;27371;42.686;23.362;2023-09-12T14:47:45;10.35;;;3.00;;